sensor_id;sensor_type;location;lat;lon;timestamp;P1;durP1;ratioP1;P2;durP2;ratioP2
9372;SDS011;10838;52.350;9.790;2023-06-01T00:00:35;10.90;;;4.57;;
9372;SDS011;10838;52.350;9.790;2023-06-01T00:03:03;8.20;;;4.40;;
9372;SDS011;10838;52.350;9.790;2023-06-01T00:05:29;9.40;;;4.83;;
9372;SDS011;10838;52.350;9.790;2023-06-01T00:07:56;8.70;;;4.90;;
9372;SDS011;10838;52.350;9.790;2023-06-01T00:10:24;9.13;;;4.87;;
9372;SDS011;10838;52.350;9.790;2023-06-01T00:12:51;12.50;;;5.10;;
9372;SDS011;10838;52.350;9.790;2023-06-01T00:15:17;12.63;;;5.37;;
9372;SDS011;10838;52.350;9.790;2023-06-01T00:17:45;12.37;;;5.17;;
9372;SDS011;10838;52.350;9.790;2023-06-01T00:20:11;8.80;;;5.37;;
9372;SDS011;10838;52.350;9.790;2023-06-01T00:22:38;10.67;;;5.33;;
9372;SDS011;10838;52.350;9.790;2023-06-01T00:25:05;9.33;;;6.87;;
9372;SDS011;10838;52.350;9.790;2023-06-01T00:27:33;8.80;;;7.70;;
9372;SDS011;10838;52.350;9.790;2023-06-01T00:30:00;13.33;;;8.13;;
9372;SDS011;10838;52.350;9.790;2023-06-01T00:32:27;9.73;;;8.23;;
9372;SDS011;10838;52.350;9.790;2023-06-01T00:34:53;12.70;;;8.47;;
9372;SDS011;10838;52.350;9.790;2023-06-01T00:37:20;11.90;;;8.43;;
9372;SDS011;10838;52.350;9.790;2023-06-01T00:39:46;14.90;;;8.03;;
9372;SDS011;10838;52.350;9.790;2023-06-01T00:42:13;8.70;;;6.70;;
9372;SDS011;10838;52.350;9.790;2023-06-01T00:44:41;9.90;;;6.60;;
9372;SDS011;10838;52.350;9.790;2023-06-01T00:47:07;11.00;;;8.67;;
9372;SDS011;10838;52.350;9.790;2023-06-01T00:49:34;13.70;;;9.17;;
9372;SDS011;10838;52.350;9.790;2023-06-01T00:52:01;11.23;;;8.33;;
9372;SDS011;10838;52.350;9.790;2023-06-01T00:54:28;15.73;;;9.80;;
9372;SDS011;10838;52.350;9.790;2023-06-01T00:56:54;17.63;;;9.90;;
9372;SDS011;10838;52.350;9.790;2023-06-01T00:59:21;12.70;;;9.53;;
9372;SDS011;10838;52.350;9.790;2023-06-01T01:01:50;14.17;;;9.13;;
9372;SDS011;10838;52.350;9.790;2023-06-01T01:04:17;9.90;;;8.07;;
9372;SDS011;10838;52.350;9.790;2023-06-01T01:06:53;13.83;;;8.53;;
9372;SDS011;10838;52.350;9.790;2023-06-01T01:09:30;10.73;;;6.90;;
9372;SDS011;10838;52.350;9.790;2023-06-01T01:12:03;11.23;;;7.57;;
9372;SDS011;10838;52.350;9.790;2023-06-01T01:14:36;10.07;;;7.30;;
9372;SDS011;10838;52.350;9.790;2023-06-01T01:17:13;11.30;;;6.63;;
9372;SDS011;10838;52.350;9.790;2023-06-01T01:19:57;8.93;;;6.03;;
9372;SDS011;10838;52.350;9.790;2023-06-01T01:22:38;14.00;;;6.90;;
9372;SDS011;10838;52.350;9.790;2023-06-01T01:25:18;7.70;;;5.40;;
9372;SDS011;10838;52.350;9.790;2023-06-01T01:27:52;10.07;;;5.87;;
9372;SDS011;10838;52.350;9.790;2023-06-01T01:30:32;13.10;;;6.60;;
9372;SDS011;10838;52.350;9.790;2023-06-01T01:33:01;10.17;;;6.17;;
9372;SDS011;10838;52.350;9.790;2023-06-01T01:35:30;11.37;;;6.60;;
9372;SDS011;10838;52.350;9.790;2023-06-01T01:37:57;13.30;;;6.80;;
9372;SDS011;10838;52.350;9.790;2023-06-01T01:40:24;13.57;;;6.20;;
9372;SDS011;10838;52.350;9.790;2023-06-01T01:42:51;11.03;;;6.27;;
9372;SDS011;10838;52.350;9.790;2023-06-01T01:45:18;17.80;;;7.20;;
9372;SDS011;10838;52.350;9.790;2023-06-01T01:47:49;9.40;;;6.73;;
9372;SDS011;10838;52.350;9.790;2023-06-01T01:50:21;10.47;;;7.27;;
9372;SDS011;10838;52.350;9.790;2023-06-01T01:52:53;11.07;;;5.90;;
9372;SDS011;10838;52.350;9.790;2023-06-01T01:55:20;10.23;;;5.63;;
9372;SDS011;10838;52.350;9.790;2023-06-01T01:57:49;8.50;;;5.33;;
9372;SDS011;10838;52.350;9.790;2023-06-01T02:00:16;14.63;;;5.57;;
9372;SDS011;10838;52.350;9.790;2023-06-01T02:02:44;8.00;;;5.07;;
9372;SDS011;10838;52.350;9.790;2023-06-01T02:05:12;10.73;;;5.33;;
9372;SDS011;10838;52.350;9.790;2023-06-01T02:07:39;9.70;;;5.17;;
9372;SDS011;10838;52.350;9.790;2023-06-01T02:10:06;13.33;;;4.80;;
9372;SDS011;10838;52.350;9.790;2023-06-01T02:12:33;8.80;;;4.70;;
9372;SDS011;10838;52.350;9.790;2023-06-01T02:15:00;8.43;;;4.40;;
9372;SDS011;10838;52.350;9.790;2023-06-01T02:17:26;7.87;;;4.57;;
9372;SDS011;10838;52.350;9.790;2023-06-01T02:19:53;9.10;;;4.87;;
9372;SDS011;10838;52.350;9.790;2023-06-01T02:22:21;13.50;;;8.77;;
9372;SDS011;10838;52.350;9.790;2023-06-01T02:24:47;19.27;;;10.73;;
9372;SDS011;10838;52.350;9.790;2023-06-01T02:27:14;12.97;;;9.77;;
9372;SDS011;10838;52.350;9.790;2023-06-01T02:29:40;13.77;;;11.73;;
9372;SDS011;10838;52.350;9.790;2023-06-01T02:32:07;18.13;;;11.33;;
9372;SDS011;10838;52.350;9.790;2023-06-01T02:34:34;13.77;;;8.53;;
9372;SDS011;10838;52.350;9.790;2023-06-01T02:37:02;10.63;;;6.97;;
9372;SDS011;10838;52.350;9.790;2023-06-01T02:39:31;14.27;;;6.80;;
9372;SDS011;10838;52.350;9.790;2023-06-01T02:41:57;10.47;;;6.43;;
9372;SDS011;10838;52.350;9.790;2023-06-01T02:44:24;12.00;;;6.30;;
9372;SDS011;10838;52.350;9.790;2023-06-01T02:46:50;8.53;;;5.17;;
9372;SDS011;10838;52.350;9.790;2023-06-01T02:49:17;8.87;;;5.17;;
9372;SDS011;10838;52.350;9.790;2023-06-01T02:51:43;7.80;;;5.20;;
9372;SDS011;10838;52.350;9.790;2023-06-01T02:54:10;11.67;;;5.30;;
9372;SDS011;10838;52.350;9.790;2023-06-01T02:56:38;11.33;;;4.83;;
9372;SDS011;10838;52.350;9.790;2023-06-01T02:59:05;9.67;;;4.87;;
9372;SDS011;10838;52.350;9.790;2023-06-01T03:01:31;9.97;;;4.90;;
9372;SDS011;10838;52.350;9.790;2023-06-01T03:04:00;9.27;;;5.30;;
9372;SDS011;10838;52.350;9.790;2023-06-01T03:06:28;8.07;;;5.03;;
9372;SDS011;10838;52.350;9.790;2023-06-01T03:08:56;9.33;;;5.03;;
9372;SDS011;10838;52.350;9.790;2023-06-01T03:11:23;14.67;;;5.60;;
9372;SDS011;10838;52.350;9.790;2023-06-01T03:13:51;7.73;;;4.67;;
9372;SDS011;10838;52.350;9.790;2023-06-01T03:16:17;9.83;;;5.20;;
9372;SDS011;10838;52.350;9.790;2023-06-01T03:18:44;10.20;;;4.87;;
9372;SDS011;10838;52.350;9.790;2023-06-01T03:21:10;10.47;;;5.13;;
9372;SDS011;10838;52.350;9.790;2023-06-01T03:23:37;9.10;;;4.67;;
9372;SDS011;10838;52.350;9.790;2023-06-01T03:26:08;11.70;;;5.47;;
9372;SDS011;10838;52.350;9.790;2023-06-01T03:28:35;11.30;;;6.00;;
9372;SDS011;10838;52.350;9.790;2023-06-01T03:31:03;10.53;;;5.60;;
9372;SDS011;10838;52.350;9.790;2023-06-01T03:33:29;14.50;;;6.80;;
9372;SDS011;10838;52.350;9.790;2023-06-01T03:35:56;10.83;;;6.07;;
9372;SDS011;10838;52.350;9.790;2023-06-01T03:38:23;9.90;;;5.73;;
9372;SDS011;10838;52.350;9.790;2023-06-01T03:40:49;10.93;;;5.23;;
9372;SDS011;10838;52.350;9.790;2023-06-01T03:43:16;9.77;;;5.47;;
9372;SDS011;10838;52.350;9.790;2023-06-01T03:45:42;10.33;;;6.13;;
9372;SDS011;10838;52.350;9.790;2023-06-01T03:48:10;10.47;;;6.57;;
9372;SDS011;10838;52.350;9.790;2023-06-01T03:50:37;13.00;;;6.00;;
9372;SDS011;10838;52.350;9.790;2023-06-01T03:53:03;15.00;;;7.50;;
9372;SDS011;10838;52.350;9.790;2023-06-01T03:55:30;12.33;;;7.00;;
9372;SDS011;10838;52.350;9.790;2023-06-01T03:57:57;12.23;;;6.33;;
9372;SDS011;10838;52.350;9.790;2023-06-01T04:00:25;16.17;;;6.70;;
9372;SDS011;10838;52.350;9.790;2023-06-01T04:02:52;10.23;;;5.73;;
9372;SDS011;10838;52.350;9.790;2023-06-01T04:05:22;9.87;;;6.00;;
9372;SDS011;10838;52.350;9.790;2023-06-01T04:07:51;13.40;;;5.93;;
9372;SDS011;10838;52.350;9.790;2023-06-01T04:10:18;15.20;;;6.37;;
9372;SDS011;10838;52.350;9.790;2023-06-01T04:12:46;11.20;;;6.00;;
9372;SDS011;10838;52.350;9.790;2023-06-01T04:15:14;11.13;;;5.17;;
9372;SDS011;10838;52.350;9.790;2023-06-01T04:17:41;11.23;;;5.43;;
9372;SDS011;10838;52.350;9.790;2023-06-01T04:20:09;11.10;;;6.23;;
9372;SDS011;10838;52.350;9.790;2023-06-01T04:22:39;10.13;;;5.30;;
9372;SDS011;10838;52.350;9.790;2023-06-01T04:25:07;9.67;;;5.60;;
9372;SDS011;10838;52.350;9.790;2023-06-01T04:27:36;7.93;;;4.97;;
9372;SDS011;10838;52.350;9.790;2023-06-01T04:30:03;9.57;;;5.33;;
9372;SDS011;10838;52.350;9.790;2023-06-01T04:32:32;11.43;;;5.77;;
9372;SDS011;10838;52.350;9.790;2023-06-01T04:35:00;12.33;;;5.23;;
9372;SDS011;10838;52.350;9.790;2023-06-01T04:37:30;8.67;;;4.83;;
9372;SDS011;10838;52.350;9.790;2023-06-01T04:40:00;8.63;;;5.17;;
9372;SDS011;10838;52.350;9.790;2023-06-01T04:42:31;9.40;;;5.80;;
9372;SDS011;10838;52.350;9.790;2023-06-01T04:44:58;10.23;;;5.47;;
9372;SDS011;10838;52.350;9.790;2023-06-01T04:47:26;9.20;;;4.80;;
9372;SDS011;10838;52.350;9.790;2023-06-01T04:49:53;6.17;;;4.17;;
9372;SDS011;10838;52.350;9.790;2023-06-01T04:52:21;9.43;;;4.30;;
9372;SDS011;10838;52.350;9.790;2023-06-01T04:54:47;5.63;;;4.23;;
9372;SDS011;10838;52.350;9.790;2023-06-01T04:57:15;8.07;;;4.00;;
9372;SDS011;10838;52.350;9.790;2023-06-01T04:59:43;4.40;;;3.90;;
9372;SDS011;10838;52.350;9.790;2023-06-01T05:02:10;4.57;;;3.77;;
9372;SDS011;10838;52.350;9.790;2023-06-01T05:04:37;4.87;;;3.60;;
9372;SDS011;10838;52.350;9.790;2023-06-01T05:07:03;11.10;;;4.00;;
9372;SDS011;10838;52.350;9.790;2023-06-01T05:09:30;4.67;;;3.87;;
9372;SDS011;10838;52.350;9.790;2023-06-01T05:11:57;4.90;;;3.80;;
9372;SDS011;10838;52.350;9.790;2023-06-01T05:14:25;4.90;;;3.67;;
9372;SDS011;10838;52.350;9.790;2023-06-01T05:16:52;7.60;;;3.80;;
9372;SDS011;10838;52.350;9.790;2023-06-01T05:19:18;7.90;;;4.80;;
9372;SDS011;10838;52.350;9.790;2023-06-01T05:21:45;7.90;;;4.37;;
9372;SDS011;10838;52.350;9.790;2023-06-01T05:24:12;8.07;;;3.97;;
9372;SDS011;10838;52.350;9.790;2023-06-01T05:26:38;8.03;;;3.87;;
9372;SDS011;10838;52.350;9.790;2023-06-01T05:29:05;7.37;;;3.90;;
9372;SDS011;10838;52.350;9.790;2023-06-01T05:31:33;4.27;;;3.73;;
9372;SDS011;10838;52.350;9.790;2023-06-01T05:34:00;7.73;;;4.33;;
9372;SDS011;10838;52.350;9.790;2023-06-01T05:36:27;7.50;;;4.27;;
9372;SDS011;10838;52.350;9.790;2023-06-01T05:38:54;5.80;;;3.93;;
9372;SDS011;10838;52.350;9.790;2023-06-01T05:41:20;8.60;;;4.80;;
9372;SDS011;10838;52.350;9.790;2023-06-01T05:43:47;8.43;;;5.27;;
9372;SDS011;10838;52.350;9.790;2023-06-01T05:46:13;7.90;;;5.47;;
9372;SDS011;10838;52.350;9.790;2023-06-01T05:48:41;8.27;;;5.57;;
9372;SDS011;10838;52.350;9.790;2023-06-01T05:51:08;9.57;;;5.63;;
9372;SDS011;10838;52.350;9.790;2023-06-01T05:53:34;12.33;;;5.53;;
9372;SDS011;10838;52.350;9.790;2023-06-01T05:56:01;7.10;;;5.43;;
9372;SDS011;10838;52.350;9.790;2023-06-01T05:58:28;9.60;;;6.97;;
9372;SDS011;10838;52.350;9.790;2023-06-01T06:00:54;12.47;;;8.13;;
9372;SDS011;10838;52.350;9.790;2023-06-01T06:03:21;10.20;;;8.40;;
9372;SDS011;10838;52.350;9.790;2023-06-01T06:05:49;13.50;;;9.03;;
9372;SDS011;10838;52.350;9.790;2023-06-01T06:08:16;12.17;;;7.97;;
9372;SDS011;10838;52.350;9.790;2023-06-01T06:10:43;11.43;;;7.23;;
9372;SDS011;10838;52.350;9.790;2023-06-01T06:13:09;12.43;;;7.07;;
9372;SDS011;10838;52.350;9.790;2023-06-01T06:15:36;10.03;;;7.43;;
9372;SDS011;10838;52.350;9.790;2023-06-01T06:18:03;9.13;;;6.47;;
9372;SDS011;10838;52.350;9.790;2023-06-01T06:20:29;9.80;;;6.27;;
9372;SDS011;10838;52.350;9.790;2023-06-01T06:22:57;9.47;;;6.17;;
9372;SDS011;10838;52.350;9.790;2023-06-01T06:25:24;9.17;;;6.43;;
9372;SDS011;10838;52.350;9.790;2023-06-01T06:27:50;8.27;;;6.00;;
9372;SDS011;10838;52.350;9.790;2023-06-01T06:30:17;13.30;;;7.10;;
9372;SDS011;10838;52.350;9.790;2023-06-01T06:32:43;8.20;;;5.97;;
9372;SDS011;10838;52.350;9.790;2023-06-01T06:35:10;9.63;;;5.70;;
9372;SDS011;10838;52.350;9.790;2023-06-01T06:37:38;7.53;;;6.53;;
9372;SDS011;10838;52.350;9.790;2023-06-01T06:40:07;11.87;;;6.83;;
9372;SDS011;10838;52.350;9.790;2023-06-01T06:42:34;6.97;;;6.27;;
9372;SDS011;10838;52.350;9.790;2023-06-01T06:45:00;12.17;;;6.80;;
9372;SDS011;10838;52.350;9.790;2023-06-01T06:47:27;14.17;;;6.40;;
9372;SDS011;10838;52.350;9.790;2023-06-01T06:49:54;10.60;;;6.20;;
9372;SDS011;10838;52.350;9.790;2023-06-01T06:52:20;12.43;;;7.07;;
9372;SDS011;10838;52.350;9.790;2023-06-01T06:54:47;10.43;;;5.97;;
9372;SDS011;10838;52.350;9.790;2023-06-01T06:57:15;10.17;;;7.20;;
9372;SDS011;10838;52.350;9.790;2023-06-01T06:59:42;10.10;;;7.37;;
9372;SDS011;10838;52.350;9.790;2023-06-01T07:02:08;15.50;;;9.00;;
9372;SDS011;10838;52.350;9.790;2023-06-01T07:04:35;16.50;;;8.60;;
9372;SDS011;10838;52.350;9.790;2023-06-01T07:07:02;13.90;;;7.33;;
9372;SDS011;10838;52.350;9.790;2023-06-01T07:09:29;16.93;;;8.23;;
9372;SDS011;10838;52.350;9.790;2023-06-01T07:11:55;17.93;;;9.53;;
9372;SDS011;10838;52.350;9.790;2023-06-01T07:14:23;12.97;;;10.37;;
9372;SDS011;10838;52.350;9.790;2023-06-01T07:16:50;14.27;;;9.70;;
9372;SDS011;10838;52.350;9.790;2023-06-01T07:19:16;17.37;;;11.37;;
9372;SDS011;10838;52.350;9.790;2023-06-01T07:21:43;16.87;;;12.77;;
9372;SDS011;10838;52.350;9.790;2023-06-01T07:24:10;21.73;;;13.80;;
9372;SDS011;10838;52.350;9.790;2023-06-01T07:26:36;19.97;;;14.50;;
9372;SDS011;10838;52.350;9.790;2023-06-01T07:29:03;20.63;;;14.37;;
9372;SDS011;10838;52.350;9.790;2023-06-01T07:31:32;20.60;;;14.30;;
9372;SDS011;10838;52.350;9.790;2023-06-01T07:34:00;21.27;;;13.37;;
9372;SDS011;10838;52.350;9.790;2023-06-01T07:36:26;16.67;;;12.67;;
9372;SDS011;10838;52.350;9.790;2023-06-01T07:38:58;15.10;;;12.10;;
9372;SDS011;10838;52.350;9.790;2023-06-01T07:41:25;16.57;;;12.40;;
9372;SDS011;10838;52.350;9.790;2023-06-01T07:43:52;24.93;;;13.83;;
9372;SDS011;10838;52.350;9.790;2023-06-01T07:46:19;20.33;;;14.30;;
9372;SDS011;10838;52.350;9.790;2023-06-01T07:48:47;18.83;;;13.37;;
9372;SDS011;10838;52.350;9.790;2023-06-01T07:51:13;18.50;;;13.13;;
9372;SDS011;10838;52.350;9.790;2023-06-01T07:53:40;20.80;;;13.10;;
9372;SDS011;10838;52.350;9.790;2023-06-01T07:56:06;21.07;;;10.60;;
9372;SDS011;10838;52.350;9.790;2023-06-01T07:58:33;21.97;;;11.03;;
9372;SDS011;10838;52.350;9.790;2023-06-01T08:01:00;17.90;;;10.47;;
9372;SDS011;10838;52.350;9.790;2023-06-01T08:03:27;14.80;;;9.87;;
9372;SDS011;10838;52.350;9.790;2023-06-01T08:05:55;13.43;;;9.80;;
9372;SDS011;10838;52.350;9.790;2023-06-01T08:08:24;14.83;;;9.30;;
9372;SDS011;10838;52.350;9.790;2023-06-01T08:10:51;14.57;;;8.23;;
9372;SDS011;10838;52.350;9.790;2023-06-01T08:13:18;17.50;;;8.10;;
9372;SDS011;10838;52.350;9.790;2023-06-01T08:15:44;13.07;;;7.33;;
9372;SDS011;10838;52.350;9.790;2023-06-01T08:18:12;11.40;;;7.37;;
9372;SDS011;10838;52.350;9.790;2023-06-01T08:20:38;7.53;;;6.70;;
9372;SDS011;10838;52.350;9.790;2023-06-01T08:23:08;12.17;;;6.30;;
9372;SDS011;10838;52.350;9.790;2023-06-01T08:25:34;17.80;;;6.70;;
9372;SDS011;10838;52.350;9.790;2023-06-01T08:28:01;9.67;;;6.47;;
9372;SDS011;10838;52.350;9.790;2023-06-01T08:30:28;16.90;;;6.87;;
9372;SDS011;10838;52.350;9.790;2023-06-01T08:32:54;8.30;;;6.37;;
9372;SDS011;10838;52.350;9.790;2023-06-01T08:35:21;12.30;;;7.20;;
9372;SDS011;10838;52.350;9.790;2023-06-01T08:37:47;7.97;;;5.77;;
9372;SDS011;10838;52.350;9.790;2023-06-01T08:40:15;12.17;;;6.63;;
9372;SDS011;10838;52.350;9.790;2023-06-01T08:42:43;11.93;;;5.13;;
9372;SDS011;10838;52.350;9.790;2023-06-01T08:45:19;14.70;;;5.77;;
9372;SDS011;10838;52.350;9.790;2023-06-01T08:47:46;9.63;;;5.43;;
9372;SDS011;10838;52.350;9.790;2023-06-01T08:50:14;9.00;;;4.83;;
9372;SDS011;10838;52.350;9.790;2023-06-01T08:52:43;7.40;;;4.70;;
9372;SDS011;10838;52.350;9.790;2023-06-01T08:55:11;10.00;;;5.03;;
9372;SDS011;10838;52.350;9.790;2023-06-01T08:57:41;9.07;;;5.20;;
9372;SDS011;10838;52.350;9.790;2023-06-01T09:00:08;10.73;;;5.90;;
9372;SDS011;10838;52.350;9.790;2023-06-01T09:02:38;9.73;;;5.20;;
9372;SDS011;10838;52.350;9.790;2023-06-01T09:05:05;9.87;;;4.80;;
9372;SDS011;10838;52.350;9.790;2023-06-01T09:07:31;8.13;;;5.27;;
9372;SDS011;10838;52.350;9.790;2023-06-01T09:09:59;6.13;;;4.07;;
9372;SDS011;10838;52.350;9.790;2023-06-01T09:12:27;8.53;;;4.57;;
9372;SDS011;10838;52.350;9.790;2023-06-01T09:15:09;5.63;;;3.80;;
9372;SDS011;10838;52.350;9.790;2023-06-01T09:17:38;5.03;;;3.70;;
9372;SDS011;10838;52.350;9.790;2023-06-01T09:20:06;8.03;;;3.57;;
9372;SDS011;10838;52.350;9.790;2023-06-01T09:22:40;3.53;;;3.27;;
9372;SDS011;10838;52.350;9.790;2023-06-01T09:25:08;5.30;;;3.10;;
9372;SDS011;10838;52.350;9.790;2023-06-01T09:27:42;4.97;;;3.17;;
9372;SDS011;10838;52.350;9.790;2023-06-01T09:30:11;3.53;;;2.63;;
9372;SDS011;10838;52.350;9.790;2023-06-01T09:32:38;2.77;;;2.50;;
9372;SDS011;10838;52.350;9.790;2023-06-01T09:35:06;3.20;;;2.90;;
9372;SDS011;10838;52.350;9.790;2023-06-01T09:37:33;2.93;;;2.60;;
9372;SDS011;10838;52.350;9.790;2023-06-01T09:40:00;4.70;;;2.60;;
9372;SDS011;10838;52.350;9.790;2023-06-01T09:42:30;3.30;;;3.00;;
9372;SDS011;10838;52.350;9.790;2023-06-01T09:45:01;3.23;;;2.93;;
9372;SDS011;10838;52.350;9.790;2023-06-01T09:47:42;2.50;;;2.40;;
9372;SDS011;10838;52.350;9.790;2023-06-01T09:50:08;3.70;;;2.40;;
9372;SDS011;10838;52.350;9.790;2023-06-01T09:52:36;3.10;;;2.90;;
9372;SDS011;10838;52.350;9.790;2023-06-01T09:55:06;2.70;;;2.50;;
9372;SDS011;10838;52.350;9.790;2023-06-01T09:57:34;2.70;;;2.50;;
9372;SDS011;10838;52.350;9.790;2023-06-01T10:00:01;3.17;;;2.20;;
9372;SDS011;10838;52.350;9.790;2023-06-01T10:02:31;2.17;;;2.07;;
9372;SDS011;10838;52.350;9.790;2023-06-01T10:04:59;3.83;;;2.10;;
9372;SDS011;10838;52.350;9.790;2023-06-01T10:07:26;5.37;;;2.37;;
9372;SDS011;10838;52.350;9.790;2023-06-01T10:09:56;3.30;;;2.73;;
9372;SDS011;10838;52.350;9.790;2023-06-01T10:12:23;2.43;;;2.30;;
9372;SDS011;10838;52.350;9.790;2023-06-01T10:14:50;2.47;;;2.30;;
9372;SDS011;10838;52.350;9.790;2023-06-01T10:17:17;3.67;;;2.50;;
9372;SDS011;10838;52.350;9.790;2023-06-01T10:19:46;3.13;;;2.20;;
9372;SDS011;10838;52.350;9.790;2023-06-01T10:22:13;3.83;;;1.90;;
9372;SDS011;10838;52.350;9.790;2023-06-01T10:24:41;6.30;;;2.23;;
9372;SDS011;10838;52.350;9.790;2023-06-01T10:27:11;2.70;;;2.37;;
9372;SDS011;10838;52.350;9.790;2023-06-01T10:29:42;2.80;;;2.60;;
9372;SDS011;10838;52.350;9.790;2023-06-01T10:35:50;3.50;;;2.20;;
9372;SDS011;10838;52.350;9.790;2023-06-01T10:38:28;2.53;;;2.00;;
9372;SDS011;10838;52.350;9.790;2023-06-01T10:43:54;3.07;;;2.03;;
9372;SDS011;10838;52.350;9.790;2023-06-01T10:46:33;3.67;;;2.40;;
9372;SDS011;10838;52.350;9.790;2023-06-01T10:49:02;2.43;;;2.23;;
9372;SDS011;10838;52.350;9.790;2023-06-01T10:51:29;4.60;;;2.33;;
9372;SDS011;10838;52.350;9.790;2023-06-01T10:54:00;2.67;;;2.17;;
9372;SDS011;10838;52.350;9.790;2023-06-01T11:02:54;2.80;;;2.47;;
9372;SDS011;10838;52.350;9.790;2023-06-01T11:11:20;2.17;;;2.00;;
9372;SDS011;10838;52.350;9.790;2023-06-01T11:14:06;2.10;;;2.00;;
9372;SDS011;10838;52.350;9.790;2023-06-01T11:16:35;2.10;;;1.90;;
9372;SDS011;10838;52.350;9.790;2023-06-01T11:19:03;2.30;;;2.10;;
9372;SDS011;10838;52.350;9.790;2023-06-01T11:21:32;2.03;;;1.93;;
9372;SDS011;10838;52.350;9.790;2023-06-01T11:24:03;2.60;;;2.40;;
9372;SDS011;10838;52.350;9.790;2023-06-01T11:26:34;2.70;;;2.50;;
9372;SDS011;10838;52.350;9.790;2023-06-01T11:29:03;5.83;;;2.73;;
9372;SDS011;10838;52.350;9.790;2023-06-01T11:31:35;2.90;;;2.70;;
9372;SDS011;10838;52.350;9.790;2023-06-01T11:34:03;2.77;;;2.57;;
9372;SDS011;10838;52.350;9.790;2023-06-01T11:36:31;2.53;;;2.33;;
9372;SDS011;10838;52.350;9.790;2023-06-01T11:39:02;7.80;;;3.00;;
9372;SDS011;10838;52.350;9.790;2023-06-01T11:41:34;3.07;;;2.97;;
9372;SDS011;10838;52.350;9.790;2023-06-01T11:44:01;2.63;;;2.47;;
9372;SDS011;10838;52.350;9.790;2023-06-01T11:46:28;2.63;;;2.40;;
9372;SDS011;10838;52.350;9.790;2023-06-01T11:48:58;2.73;;;2.47;;
9372;SDS011;10838;52.350;9.790;2023-06-01T11:51:27;3.30;;;3.00;;
9372;SDS011;10838;52.350;9.790;2023-06-01T11:53:55;2.60;;;2.40;;
9372;SDS011;10838;52.350;9.790;2023-06-01T11:56:27;2.97;;;2.57;;
9372;SDS011;10838;52.350;9.790;2023-06-01T11:58:57;2.50;;;2.30;;
9372;SDS011;10838;52.350;9.790;2023-06-01T12:01:25;3.80;;;2.40;;
9372;SDS011;10838;52.350;9.790;2023-06-01T12:03:53;2.43;;;2.27;;
9372;SDS011;10838;52.350;9.790;2023-06-01T12:06:22;2.60;;;2.40;;
9372;SDS011;10838;52.350;9.790;2023-06-01T12:08:50;3.73;;;2.70;;
9372;SDS011;10838;52.350;9.790;2023-06-01T12:11:18;3.80;;;3.50;;
9372;SDS011;10838;52.350;9.790;2023-06-01T12:13:46;7.67;;;4.23;;
9372;SDS011;10838;52.350;9.790;2023-06-01T12:16:15;4.53;;;4.10;;
9372;SDS011;10838;52.350;9.790;2023-06-01T12:18:42;4.37;;;3.50;;
9372;SDS011;10838;52.350;9.790;2023-06-01T12:21:09;4.00;;;3.60;;
9372;SDS011;10838;52.350;9.790;2023-06-01T12:23:37;6.07;;;3.33;;
9372;SDS011;10838;52.350;9.790;2023-06-01T12:26:04;3.50;;;3.30;;
9372;SDS011;10838;52.350;9.790;2023-06-01T12:28:46;3.60;;;3.30;;
9372;SDS011;10838;52.350;9.790;2023-06-01T12:31:15;3.17;;;2.97;;
9372;SDS011;10838;52.350;9.790;2023-06-01T12:33:43;2.93;;;2.70;;
9372;SDS011;10838;52.350;9.790;2023-06-01T12:36:10;3.63;;;3.07;;
9372;SDS011;10838;52.350;9.790;2023-06-01T12:38:53;2.70;;;2.50;;
9372;SDS011;10838;52.350;9.790;2023-06-01T12:41:19;3.60;;;3.30;;
9372;SDS011;10838;52.350;9.790;2023-06-01T12:43:47;3.50;;;3.20;;
9372;SDS011;10838;52.350;9.790;2023-06-01T12:46:18;3.93;;;3.40;;
9372;SDS011;10838;52.350;9.790;2023-06-01T12:48:45;4.70;;;3.17;;
9372;SDS011;10838;52.350;9.790;2023-06-01T12:51:12;3.67;;;3.37;;
9372;SDS011;10838;52.350;9.790;2023-06-01T12:53:39;3.63;;;3.43;;
9372;SDS011;10838;52.350;9.790;2023-06-01T12:56:07;4.13;;;3.73;;
9372;SDS011;10838;52.350;9.790;2023-06-01T12:58:34;3.80;;;3.37;;
9372;SDS011;10838;52.350;9.790;2023-06-01T13:01:01;5.67;;;3.00;;
9372;SDS011;10838;52.350;9.790;2023-06-01T13:03:29;4.10;;;3.17;;
9372;SDS011;10838;52.350;9.790;2023-06-01T13:05:55;3.17;;;2.87;;
9372;SDS011;10838;52.350;9.790;2023-06-01T13:08:22;4.63;;;2.70;;
9372;SDS011;10838;52.350;9.790;2023-06-01T13:10:49;3.77;;;3.27;;
9372;SDS011;10838;52.350;9.790;2023-06-01T13:13:16;3.20;;;2.90;;
9372;SDS011;10838;52.350;9.790;2023-06-01T13:15:42;3.43;;;2.50;;
9372;SDS011;10838;52.350;9.790;2023-06-01T13:18:10;7.47;;;2.80;;
9372;SDS011;10838;52.350;9.790;2023-06-01T13:20:38;4.07;;;2.70;;
9372;SDS011;10838;52.350;9.790;2023-06-01T13:23:05;4.33;;;3.00;;
9372;SDS011;10838;52.350;9.790;2023-06-01T13:25:32;5.87;;;3.00;;
9372;SDS011;10838;52.350;9.790;2023-06-01T13:27:59;3.50;;;2.80;;
9372;SDS011;10838;52.350;9.790;2023-06-01T13:30:26;3.60;;;2.93;;
9372;SDS011;10838;52.350;9.790;2023-06-01T13:32:53;5.10;;;2.57;;
9372;SDS011;10838;52.350;9.790;2023-06-01T13:35:21;3.23;;;2.53;;
9372;SDS011;10838;52.350;9.790;2023-06-01T13:37:49;5.50;;;2.67;;
9372;SDS011;10838;52.350;9.790;2023-06-01T13:40:16;2.50;;;2.40;;
9372;SDS011;10838;52.350;9.790;2023-06-01T13:42:47;3.93;;;2.83;;
9372;SDS011;10838;52.350;9.790;2023-06-01T13:45:14;2.93;;;2.73;;
9372;SDS011;10838;52.350;9.790;2023-06-01T13:47:41;3.70;;;2.77;;
9372;SDS011;10838;52.350;9.790;2023-06-01T13:50:07;3.00;;;2.80;;
9372;SDS011;10838;52.350;9.790;2023-06-01T13:52:34;3.00;;;2.80;;
9372;SDS011;10838;52.350;9.790;2023-06-01T13:55:03;3.90;;;2.60;;
9372;SDS011;10838;52.350;9.790;2023-06-01T13:57:31;2.67;;;2.47;;
9372;SDS011;10838;52.350;9.790;2023-06-01T13:59:58;2.90;;;2.70;;
9372;SDS011;10838;52.350;9.790;2023-06-01T14:02:24;3.03;;;2.30;;
9372;SDS011;10838;52.350;9.790;2023-06-01T14:04:51;4.27;;;2.47;;
9372;SDS011;10838;52.350;9.790;2023-06-01T14:07:18;5.73;;;2.57;;
9372;SDS011;10838;52.350;9.790;2023-06-01T14:09:45;2.87;;;2.47;;
9372;SDS011;10838;52.350;9.790;2023-06-01T14:12:12;3.10;;;2.50;;
9372;SDS011;10838;52.350;9.790;2023-06-01T14:14:39;3.57;;;2.80;;
9372;SDS011;10838;52.350;9.790;2023-06-01T14:17:06;3.03;;;2.80;;
9372;SDS011;10838;52.350;9.790;2023-06-01T14:19:32;3.13;;;2.50;;
9372;SDS011;10838;52.350;9.790;2023-06-01T14:21:59;3.70;;;2.90;;
9372;SDS011;10838;52.350;9.790;2023-06-01T14:24:25;4.03;;;2.70;;
9372;SDS011;10838;52.350;9.790;2023-06-01T14:26:52;5.50;;;2.90;;
9372;SDS011;10838;52.350;9.790;2023-06-01T14:29:20;3.33;;;2.87;;
9372;SDS011;10838;52.350;9.790;2023-06-01T14:31:46;3.40;;;3.10;;
9372;SDS011;10838;52.350;9.790;2023-06-01T14:34:13;3.63;;;3.03;;
9372;SDS011;10838;52.350;9.790;2023-06-01T14:36:40;5.33;;;2.97;;
9372;SDS011;10838;52.350;9.790;2023-06-01T14:39:07;4.57;;;3.50;;
9372;SDS011;10838;52.350;9.790;2023-06-01T14:41:34;5.57;;;3.70;;
9372;SDS011;10838;52.350;9.790;2023-06-01T14:44:00;3.63;;;3.33;;
9372;SDS011;10838;52.350;9.790;2023-06-01T14:46:28;3.97;;;3.23;;
9372;SDS011;10838;52.350;9.790;2023-06-01T14:48:55;5.50;;;3.20;;
9372;SDS011;10838;52.350;9.790;2023-06-01T14:51:23;6.50;;;3.17;;
9372;SDS011;10838;52.350;9.790;2023-06-01T14:53:49;4.60;;;3.40;;
9372;SDS011;10838;52.350;9.790;2023-06-01T14:56:16;5.17;;;3.20;;
9372;SDS011;10838;52.350;9.790;2023-06-01T14:58:42;4.53;;;3.10;;
9372;SDS011;10838;52.350;9.790;2023-06-01T15:01:09;4.33;;;3.07;;
9372;SDS011;10838;52.350;9.790;2023-06-01T15:03:37;10.83;;;3.00;;
9372;SDS011;10838;52.350;9.790;2023-06-01T15:06:04;3.37;;;2.80;;
9372;SDS011;10838;52.350;9.790;2023-06-01T15:08:31;4.07;;;3.00;;
9372;SDS011;10838;52.350;9.790;2023-06-01T15:10:58;5.57;;;2.90;;
9372;SDS011;10838;52.350;9.790;2023-06-01T15:13:24;8.20;;;3.23;;
9372;SDS011;10838;52.350;9.790;2023-06-01T15:15:51;5.23;;;2.80;;
9372;SDS011;10838;52.350;9.790;2023-06-01T15:18:17;4.40;;;2.63;;